createdAt,value
2022-09-17T00:00:11.120Z,45.79
2022-09-17T00:02:45.028Z,46.01
2022-09-17T00:05:14.882Z,45.75
2022-09-17T00:07:45.345Z,45.96
2022-09-17T00:10:15.791Z,46.22
2022-09-17T00:12:46.431Z,46.20
2022-09-17T00:15:16.508Z,45.87
2022-09-17T00:17:44.023Z,46.03
2022-09-17T00:20:11.920Z,46.02
2022-09-17T00:22:40.362Z,45.68
2022-09-17T00:25:08.769Z,45.92
2022-09-17T00:27:38.801Z,45.83
2022-09-17T00:30:14.930Z,45.65
2022-09-17T00:32:42.598Z,45.72
2022-09-17T00:35:10.560Z,46.05
2022-09-17T00:37:38.184Z,45.72
2022-09-17T00:40:12.237Z,45.78
2022-09-17T00:42:45.555Z,45.83
2022-09-17T00:45:15.825Z,45.71
2022-09-17T00:47:57.205Z,45.94
2022-09-17T00:50:27.409Z,45.57
2022-09-17T00:53:12.262Z,45.70
2022-09-17T00:56:04.520Z,45.58
2022-09-17T00:58:37.732Z,45.80
2022-09-17T01:01:08.988Z,45.46
2022-09-17T01:03:43.854Z,45.42
2022-09-17T01:06:34.732Z,45.22
2022-09-17T01:09:30.743Z,45.38
2022-09-17T01:12:10.272Z,45.62
2022-09-17T01:14:59.182Z,45.47
2022-09-17T01:17:36.658Z,45.01
2022-09-17T01:20:49.820Z,45.28
2022-09-17T01:23:49.725Z,44.87
2022-09-17T01:26:48.987Z,44.68
2022-09-17T01:29:32.293Z,44.54
2022-09-17T01:32:03.576Z,44.69
2022-09-17T01:34:45.209Z,44.33
2022-09-17T01:37:22.174Z,44.43
2022-09-17T01:40:01.031Z,44.42
2022-09-17T01:42:46.687Z,44.35
2022-09-17T01:45:40.251Z,44.51
2022-09-17T01:48:37.183Z,44.15
2022-09-17T01:51:13.032Z,44.54
2022-09-17T01:53:51.641Z,44.28
2022-09-17T01:56:24.898Z,43.99
2022-09-17T01:58:59.494Z,44.04
2022-09-17T02:01:34.096Z,43.92
2022-09-17T02:04:09.826Z,43.59
2022-09-17T02:06:40.298Z,43.49
2022-09-17T02:09:20.654Z,43.45
2022-09-17T02:11:58.996Z,43.41
2022-09-17T02:14:37.018Z,43.42
2022-09-17T02:17:15.885Z,43.47
2022-09-17T02:19:45.881Z,43.81
2022-09-17T02:22:25.925Z,43.81
2022-09-17T02:25:25.708Z,43.86
2022-09-17T02:28:03.686Z,43.65
2022-09-17T02:30:34.621Z,43.59
2022-09-17T02:33:09.869Z,43.79
2022-09-17T02:35:39.673Z,43.63
2022-09-17T02:38:12.777Z,43.95
2022-09-17T02:41:14.497Z,44.05
2022-09-17T02:44:19.195Z,43.87
2022-09-17T02:46:52.547Z,43.83
2022-09-17T02:49:25.856Z,44.14
2022-09-17T02:52:05.967Z,43.81
2022-09-17T02:55:16.180Z,43.61
2022-09-17T02:57:53.595Z,43.95
2022-09-17T03:00:28.724Z,43.73
2022-09-17T03:03:09.271Z,43.68
2022-09-17T03:05:42.674Z,43.68
2022-09-17T03:08:14.314Z,43.70
2022-09-17T03:10:44.950Z,43.58
2022-09-17T03:13:12.719Z,43.38
2022-09-17T03:15:43.346Z,43.45
2022-09-17T03:18:11.129Z,43.42
2022-09-17T03:20:42.103Z,43.69
2022-09-17T03:23:12.010Z,43.34
2022-09-17T03:25:39.957Z,43.36
2022-09-17T03:28:07.697Z,43.11
2022-09-17T03:30:37.679Z,43.34
2022-09-17T03:33:07.587Z,43.19
2022-09-17T03:35:38.187Z,43.05
2022-09-17T03:38:11.238Z,43.17
2022-09-17T03:40:39.144Z,43.39
2022-09-17T03:43:12.093Z,42.96
2022-09-17T03:45:40.750Z,42.41
2022-09-17T03:48:14.537Z,42.94
2022-09-17T03:50:47.216Z,42.62
2022-09-17T03:53:17.194Z,43.01
2022-09-17T03:55:45.041Z,42.99
2022-09-17T03:58:15.215Z,42.73
2022-09-17T04:00:44.757Z,42.59
2022-09-17T04:03:12.788Z,42.72
2022-09-17T04:05:40.519Z,42.68
2022-09-17T04:08:08.149Z,42.85
2022-09-17T04:10:35.639Z,42.67
2022-09-17T04:13:03.613Z,43.03
2022-09-17T04:15:31.524Z,42.98
2022-09-17T04:17:59.345Z,42.60
2022-09-17T04:20:30.086Z,42.61
2022-09-17T04:22:58.234Z,42.63
2022-09-17T04:25:25.888Z,42.98
2022-09-17T04:27:53.341Z,42.90
2022-09-17T04:30:23.882Z,42.50
2022-09-17T04:32:54.464Z,42.86
2022-09-17T04:35:25.215Z,43.04
2022-09-17T04:38:00.668Z,42.80
2022-09-17T04:40:36.021Z,42.80
2022-09-17T04:43:06.208Z,42.68
2022-09-17T04:45:33.868Z,42.79
2022-09-17T04:48:02.475Z,42.59
2022-09-17T04:50:32.469Z,42.64
2022-09-17T04:53:00.200Z,42.77
2022-09-17T04:55:27.969Z,42.66
2022-09-17T04:57:55.740Z,42.83
2022-09-17T05:00:28.529Z,42.94
2022-09-17T05:02:58.337Z,42.88
2022-09-17T05:05:29.173Z,42.70
2022-09-17T05:07:56.943Z,43.04
2022-09-17T05:10:25.530Z,42.92
2022-09-17T05:12:57.007Z,43.09
2022-09-17T05:15:26.312Z,43.05
2022-09-17T05:17:57.202Z,43.24
2022-09-17T05:20:24.757Z,43.28
2022-09-17T05:22:52.977Z,42.98
2022-09-17T05:25:25.620Z,43.23
2022-09-17T05:28:01.312Z,43.24
2022-09-17T05:30:30.132Z,43.25
2022-09-17T05:33:04.826Z,42.95
2022-09-17T05:35:36.835Z,43.24
2022-09-17T05:38:06.229Z,42.93
2022-09-17T05:40:38.529Z,43.27
2022-09-17T05:43:09.770Z,43.16
2022-09-17T05:45:39.601Z,43.16
2022-09-17T05:48:13.113Z,43.24
2022-09-17T05:50:43.326Z,43.31
2022-09-17T05:53:15.345Z,43.44
2022-09-17T05:55:43.255Z,43.22
2022-09-17T05:58:13.751Z,43.28
2022-09-17T06:00:46.679Z,43.35
2022-09-17T06:03:19.011Z,43.50
2022-09-17T06:05:54.771Z,42.86
2022-09-17T06:08:22.311Z,43.37
2022-09-17T06:10:58.946Z,43.25
2022-09-17T06:13:31.009Z,42.68
2022-09-17T06:16:01.890Z,43.05
2022-09-17T06:18:33.152Z,43.30
2022-09-17T06:21:02.920Z,42.86
2022-09-17T06:23:37.176Z,43.07
2022-09-17T06:26:10.936Z,43.34
2022-09-17T06:28:41.957Z,42.83
2022-09-17T06:31:13.136Z,43.02
2022-09-17T06:33:42.982Z,42.77
2022-09-17T06:36:14.342Z,43.06
2022-09-17T06:38:42.830Z,43.12
2022-09-17T06:41:10.074Z,43.28
2022-09-17T06:43:41.461Z,42.70
2022-09-17T06:46:10.292Z,43.16
2022-09-17T06:48:41.029Z,43.03
2022-09-17T06:51:10.674Z,42.97
2022-09-17T06:53:41.273Z,43.31
2022-09-17T06:56:09.942Z,43.27
2022-09-17T06:58:38.467Z,43.33
2022-09-17T07:01:07.032Z,43.24
2022-09-17T07:03:37.704Z,43.20
2022-09-17T07:06:12.772Z,43.39
2022-09-17T07:08:44.158Z,43.31
2022-09-17T07:11:16.019Z,43.38
2022-09-17T07:13:43.551Z,42.97
2022-09-17T07:16:11.677Z,43.33
2022-09-17T07:18:40.223Z,43.17
2022-09-17T07:21:11.067Z,43.00
2022-09-17T07:23:38.671Z,43.18
2022-09-17T07:26:13.906Z,43.38
2022-09-17T07:28:44.608Z,43.07
2022-09-17T07:31:16.440Z,43.29
2022-09-17T07:33:45.013Z,43.05
2022-09-17T07:36:19.419Z,42.77
2022-09-17T07:38:47.266Z,43.26
2022-09-17T07:41:16.793Z,43.13
2022-09-17T07:43:44.814Z,43.41
2022-09-17T07:46:16.246Z,43.10
2022-09-17T07:48:46.899Z,43.17
2022-09-17T07:51:22.160Z,43.13
2022-09-17T07:53:53.955Z,42.95
2022-09-17T07:56:22.561Z,42.78
2022-09-17T07:58:50.733Z,42.73
2022-09-17T08:01:21.236Z,42.65
2022-09-17T08:03:53.279Z,42.75
2022-09-17T08:06:23.649Z,42.72
2022-09-17T08:08:51.484Z,43.00
2022-09-17T08:14:16.186Z,42.72
2022-09-17T08:16:45.676Z,42.21
2022-09-17T08:19:13.115Z,42.76
2022-09-17T08:21:40.491Z,42.56
2022-09-17T08:24:08.742Z,42.43
2022-09-17T08:26:41.523Z,42.30
2022-09-17T08:29:08.945Z,42.56
2022-09-17T08:31:36.550Z,42.14
2022-09-17T08:34:10.738Z,42.30
2022-09-17T08:36:40.832Z,42.52
2022-09-17T08:39:08.484Z,42.56
2022-09-17T08:41:42.386Z,42.14
2022-09-17T08:44:30.782Z,42.22
2022-09-17T08:47:06.908Z,42.33
2022-09-17T08:49:48.504Z,42.44
2022-09-17T08:52:37.274Z,42.47
2022-09-17T08:55:42.082Z,42.36
2022-09-17T08:58:41.465Z,42.14
2022-09-17T09:01:20.892Z,42.13
2022-09-17T09:04:13.869Z,42.02
2022-09-17T09:06:49.957Z,41.66
2022-09-17T09:09:21.754Z,41.66
2022-09-17T09:12:03.461Z,41.55
2022-09-17T09:14:47.633Z,41.46
2022-09-17T09:17:20.659Z,41.34
2022-09-17T09:19:52.955Z,40.94
2022-09-17T09:22:47.300Z,40.82
2022-09-17T09:25:33.120Z,41.02
2022-09-17T09:28:40.544Z,40.67
2022-09-17T09:31:14.044Z,41.01
2022-09-17T09:33:47.708Z,40.87
2022-09-17T09:36:21.916Z,40.75
2022-09-17T09:38:50.247Z,40.47
2022-09-17T09:41:29.682Z,40.65
2022-09-17T09:44:05.863Z,40.26
2022-09-17T09:46:44.026Z,40.37
2022-09-17T09:49:23.313Z,40.48
2022-09-17T09:52:47.279Z,40.29
2022-09-17T09:55:29.093Z,40.47
2022-09-17T09:58:03.177Z,40.09
2022-09-17T10:00:49.766Z,39.72
2022-09-17T10:03:23.340Z,39.90
2022-09-17T10:05:58.828Z,40.01
2022-09-17T10:08:27.843Z,39.66
2022-09-17T10:11:06.697Z,39.44
2022-09-17T10:13:36.841Z,39.50
2022-09-17T10:16:27.281Z,39.37
2022-09-17T10:19:03.720Z,39.56
2022-09-17T10:21:35.175Z,39.75
2022-09-17T10:24:05.522Z,39.30
2022-09-17T10:26:36.724Z,39.41
2022-09-17T10:29:16.561Z,39.84
2022-09-17T10:31:55.769Z,39.84
2022-09-17T10:34:31.896Z,39.65
2022-09-17T10:37:00.125Z,39.86
2022-09-17T10:39:38.786Z,39.69
2022-09-17T10:42:14.960Z,39.75
2022-09-17T10:44:57.073Z,39.47
2022-09-17T10:47:42.116Z,39.60
2022-09-17T10:50:22.226Z,39.58
2022-09-17T10:52:57.889Z,40.03
2022-09-17T10:55:35.183Z,39.49
2022-09-17T10:58:09.294Z,39.38
2022-09-17T11:00:54.986Z,39.49
2022-09-17T11:03:53.313Z,39.86
2022-09-17T11:06:39.105Z,39.71
2022-09-17T11:09:20.881Z,39.74
2022-09-17T11:12:32.923Z,39.81
2022-09-17T11:15:30.313Z,39.80
2022-09-17T11:18:06.612Z,39.54
2022-09-17T11:21:08.435Z,39.86
2022-09-17T11:24:07.024Z,39.40
2022-09-17T11:26:47.835Z,39.58
2022-09-17T11:30:00.714Z,39.72
2022-09-17T11:32:41.741Z,39.48
2022-09-17T11:35:17.154Z,39.57
2022-09-17T11:38:03.895Z,39.90
2022-09-17T11:40:50.632Z,39.63
2022-09-17T11:43:26.619Z,39.57
2022-09-17T11:46:00.168Z,39.83
2022-09-17T11:48:42.808Z,39.89
2022-09-17T11:51:23.450Z,39.58
2022-09-17T11:54:14.959Z,39.69
2022-09-17T11:56:46.003Z,39.85
2022-09-17T12:00:00.747Z,39.64
2022-09-17T12:02:52.980Z,39.60
2022-09-17T12:05:29.385Z,39.69
2022-09-17T12:08:28.467Z,39.69
2022-09-17T12:11:07.827Z,39.22
2022-09-17T12:14:02.770Z,39.45
2022-09-17T12:16:40.537Z,39.37
2022-09-17T12:19:32.299Z,39.45
2022-09-17T12:22:17.137Z,39.55
2022-09-17T12:24:44.592Z,39.51
2022-09-17T12:27:38.178Z,39.74
2022-09-17T12:30:15.180Z,39.50
2022-09-17T12:33:21.582Z,39.58
2022-09-17T12:36:04.031Z,39.53
2022-09-17T12:39:10.051Z,39.28
2022-09-17T12:41:52.757Z,39.49
2022-09-17T12:44:35.716Z,39.68
2022-09-17T12:47:08.968Z,39.60
2022-09-17T12:50:04.229Z,39.27
2022-09-17T12:52:42.889Z,39.34
2022-09-17T12:55:24.981Z,39.55
2022-09-17T12:58:07.802Z,39.59
2022-09-17T13:00:48.439Z,39.36
2022-09-17T13:03:29.763Z,39.26
2022-09-17T13:06:23.239Z,39.24
2022-09-17T13:08:53.338Z,39.36
2022-09-17T13:11:51.396Z,39.52
2022-09-17T13:14:48.930Z,39.62
2022-09-17T13:18:13.229Z,38.99
2022-09-17T13:21:01.730Z,39.38
2022-09-17T13:23:37.557Z,39.14
2022-09-17T13:26:06.869Z,39.23
2022-09-17T13:28:46.767Z,39.31
2022-09-17T13:31:42.111Z,39.28
2022-09-17T13:34:18.280Z,39.32
2022-09-17T13:36:55.784Z,39.04
2022-09-17T13:39:41.830Z,39.15
2022-09-17T13:42:16.024Z,39.49
2022-09-17T13:44:48.606Z,39.19
2022-09-17T13:47:26.499Z,39.47
2022-09-17T13:50:06.045Z,39.64
2022-09-17T13:52:42.914Z,39.55
2022-09-17T13:55:37.780Z,39.64
2022-09-17T13:58:23.495Z,39.52
2022-09-17T14:01:04.197Z,39.58
2022-09-17T14:03:34.463Z,39.36
2022-09-17T14:06:08.643Z,39.35
2022-09-17T14:08:45.638Z,39.53
2022-09-17T14:11:32.685Z,39.34
2022-09-17T14:14:06.472Z,39.69
2022-09-17T14:16:46.086Z,39.29
2022-09-17T14:19:26.645Z,39.09
2022-09-17T14:22:06.530Z,39.18
2022-09-17T14:24:52.380Z,39.82
2022-09-17T14:27:42.691Z,39.44
2022-09-17T14:30:26.527Z,39.45
2022-09-17T14:33:18.033Z,39.63
2022-09-17T14:36:01.692Z,38.93
2022-09-17T14:38:31.310Z,39.44
2022-09-17T14:41:07.847Z,39.48
2022-09-17T14:43:56.340Z,39.26
2022-09-17T14:46:29.965Z,39.63
2022-09-17T14:49:22.747Z,39.36
2022-09-17T14:51:53.993Z,39.32
2022-09-17T14:54:30.300Z,39.46
2022-09-17T14:57:20.744Z,39.07
2022-09-17T14:59:52.344Z,39.05
2022-09-17T15:02:45.958Z,39.33
2022-09-17T15:05:30.496Z,39.40
2022-09-17T15:08:10.092Z,39.23
2022-09-17T15:10:45.040Z,39.23
2022-09-17T15:13:15.367Z,39.28
2022-09-17T15:15:53.724Z,39.34
2022-09-17T15:18:30.125Z,39.29
2022-09-17T15:21:01.774Z,39.14
2022-09-17T15:23:35.768Z,39.21
2022-09-17T15:26:06.654Z,39.05
2022-09-17T15:28:42.133Z,38.79
2022-09-17T15:31:18.452Z,39.17
2022-09-17T15:33:49.010Z,38.84
2022-09-17T15:36:31.824Z,38.98
2022-09-17T15:38:59.422Z,38.63
2022-09-17T15:41:35.215Z,39.26
2022-09-17T15:44:32.735Z,39.04
2022-09-17T15:47:56.773Z,39.09
2022-09-17T15:50:34.246Z,38.99
2022-09-17T15:53:10.724Z,38.94
2022-09-17T15:55:45.646Z,38.94
2022-09-17T15:58:41.950Z,39.10
2022-09-17T16:01:18.748Z,38.63
2022-09-17T16:03:46.340Z,39.10
2022-09-17T16:06:19.972Z,38.93
2022-09-17T16:08:50.167Z,39.02
2022-09-17T16:11:21.121Z,39.30
2022-09-17T16:13:53.668Z,38.70
2022-09-17T16:16:26.874Z,38.89
2022-09-17T16:18:54.262Z,39.18
2022-09-17T16:21:26.341Z,38.99
2022-09-17T16:23:56.943Z,39.11
2022-09-17T16:26:30.792Z,39.25
2022-09-17T16:29:29.847Z,38.99
2022-09-17T16:31:57.282Z,39.06
2022-09-17T16:34:25.006Z,39.33
2022-09-17T16:36:57.474Z,39.56
2022-09-17T16:39:29.639Z,39.19
2022-09-17T16:41:58.172Z,39.17
2022-09-17T16:44:31.370Z,39.56
2022-09-17T16:47:01.234Z,39.08
2022-09-17T16:49:28.636Z,39.34
2022-09-17T16:51:55.976Z,39.59
2022-09-17T16:54:25.697Z,39.23
2022-09-17T16:56:55.688Z,39.48
2022-09-17T16:59:23.157Z,39.13
2022-09-17T17:01:55.613Z,39.21
2022-09-17T17:04:23.023Z,39.25
2022-09-17T17:06:53.773Z,39.39
2022-09-17T17:09:24.087Z,39.21
2022-09-17T17:11:57.257Z,39.40
2022-09-17T17:14:30.699Z,39.17
2022-09-17T17:17:01.256Z,39.01
2022-09-17T17:19:31.809Z,39.21
2022-09-17T17:22:01.953Z,39.01
2022-09-17T17:24:32.150Z,39.10
2022-09-17T17:27:01.814Z,38.83
2022-09-17T17:29:29.524Z,39.13
2022-09-17T17:31:56.844Z,38.97
2022-09-17T17:34:24.332Z,38.98
2022-09-17T17:36:55.465Z,39.26
2022-09-17T17:39:25.096Z,38.99
2022-09-17T17:41:55.945Z,38.94
2022-09-17T17:44:23.406Z,39.36
2022-09-17T17:46:54.194Z,39.29
2022-09-17T17:49:24.119Z,39.33
2022-09-17T17:51:53.875Z,39.54
2022-09-17T17:54:28.040Z,39.18
2022-09-17T17:56:58.941Z,39.11
2022-09-17T17:59:26.372Z,39.53
2022-09-17T18:01:55.987Z,38.92
2022-09-17T18:04:26.268Z,39.01
2022-09-17T18:06:53.855Z,39.17
2022-09-17T18:09:23.932Z,39.04
2022-09-17T18:11:56.552Z,39.40
2022-09-17T18:14:23.980Z,38.68
2022-09-17T18:16:54.518Z,38.96
2022-09-17T18:19:22.053Z,39.20
2022-09-17T18:21:49.516Z,38.90
2022-09-17T18:24:17.129Z,38.63
2022-09-17T18:26:47.599Z,39.04
2022-09-17T18:29:20.207Z,38.93
2022-09-17T18:31:50.496Z,39.13
2022-09-17T18:34:20.741Z,39.08
2022-09-17T18:36:51.465Z,39.06
2022-09-17T18:39:56.743Z,39.10
2022-09-17T18:42:12.107Z,39.52
2022-09-17T18:44:46.959Z,39.09
2022-09-17T18:47:17.733Z,39.20
2022-09-17T18:49:47.650Z,39.22
2022-09-17T18:52:20.229Z,39.33
2022-09-17T18:54:50.513Z,39.38
2022-09-17T18:57:20.218Z,39.52
2022-09-17T18:59:48.231Z,39.36
2022-09-17T19:02:18.058Z,39.56
2022-09-17T19:04:45.531Z,39.61
2022-09-17T19:07:12.999Z,39.78
2022-09-17T19:09:46.673Z,39.76
2022-09-17T19:12:14.084Z,39.80
2022-09-17T19:14:47.444Z,39.90
2022-09-17T19:17:15.309Z,39.91
2022-09-17T19:19:44.800Z,39.78
2022-09-17T19:22:12.281Z,39.60
2022-09-17T19:24:39.785Z,40.09
2022-09-17T19:27:10.257Z,39.87
2022-09-17T19:29:40.202Z,40.27
2022-09-17T19:32:08.911Z,40.29
2022-09-17T19:34:36.476Z,40.14
2022-09-17T19:37:04.132Z,40.25
2022-09-17T19:39:31.716Z,40.48
2022-09-17T19:42:01.735Z,40.47
2022-09-17T19:44:31.934Z,40.46
2022-09-17T19:47:07.069Z,40.31
2022-09-17T19:49:35.562Z,40.38
2022-09-17T19:52:02.977Z,40.35
2022-09-17T19:54:33.856Z,40.58
2022-09-17T19:57:01.232Z,40.51
2022-09-17T19:59:29.206Z,40.68
2022-09-17T20:01:56.677Z,40.49
2022-09-17T20:04:24.922Z,40.84
2022-09-17T20:06:52.292Z,40.90
2022-09-17T20:09:22.059Z,40.49
2022-09-17T20:11:51.754Z,40.96
2022-09-17T20:14:21.833Z,40.85
2022-09-17T20:16:51.580Z,40.71
2022-09-17T20:19:21.605Z,40.77
2022-09-17T20:21:51.605Z,40.63
2022-09-17T20:24:21.148Z,40.98
2022-09-17T20:26:51.092Z,40.70
2022-09-17T20:29:22.089Z,41.15
2022-09-17T20:31:49.506Z,40.91
2022-09-17T20:34:19.318Z,40.67
2022-09-17T20:36:49.180Z,41.04
2022-09-17T20:39:22.261Z,41.12
2022-09-17T20:41:53.104Z,40.82
2022-09-17T20:44:23.824Z,41.27
2022-09-17T20:46:54.713Z,40.96
2022-09-17T20:49:23.021Z,41.04
2022-09-17T20:51:52.565Z,41.23
2022-09-17T20:54:19.975Z,41.33
2022-09-17T20:56:50.291Z,40.82
2022-09-17T20:59:25.109Z,40.93
2022-09-17T21:01:53.704Z,41.13
2022-09-17T21:04:21.792Z,40.90
2022-09-17T21:06:53.928Z,40.85
2022-09-17T21:09:23.823Z,40.74
2022-09-17T21:11:57.395Z,41.02
2022-09-17T21:14:27.086Z,40.90
2022-09-17T21:16:59.331Z,40.72
2022-09-17T21:19:29.677Z,40.23
2022-09-17T21:21:57.690Z,40.11
2022-09-17T21:24:29.991Z,39.81
2022-09-17T21:26:57.333Z,39.62
2022-09-17T21:29:24.654Z,39.79
2022-09-17T21:31:56.760Z,39.79
2022-09-17T21:34:25.378Z,39.56
2022-09-17T21:36:52.768Z,39.72
2022-09-17T21:39:20.152Z,39.79
2022-09-17T21:41:52.817Z,39.57
2022-09-17T21:44:20.513Z,39.35
2022-09-17T21:46:49.741Z,39.27
2022-09-17T21:49:17.508Z,39.34
2022-09-17T21:51:44.922Z,39.15
2022-09-17T21:54:16.975Z,39.34
2022-09-17T21:56:48.321Z,39.20
2022-09-17T21:59:18.404Z,39.17
2022-09-17T22:01:50.874Z,39.39
2022-09-17T22:04:21.192Z,39.07
2022-09-17T22:06:53.192Z,39.20
2022-09-17T22:09:23.453Z,39.18
2022-09-17T22:11:52.042Z,39.27
2022-09-17T22:14:24.402Z,39.13
2022-09-17T22:16:57.063Z,38.95
2022-09-17T22:19:27.462Z,39.00
2022-09-17T22:21:58.958Z,39.03
2022-09-17T22:24:28.327Z,39.07
2022-09-17T22:26:58.100Z,39.06
2022-09-17T22:29:31.754Z,39.21
2022-09-17T22:31:59.143Z,39.26
2022-09-17T22:34:29.755Z,38.99
2022-09-17T22:37:00.202Z,39.20
2022-09-17T22:39:27.621Z,39.06
2022-09-17T22:41:57.786Z,38.87
2022-09-17T22:44:28.059Z,39.09
2022-09-17T22:46:58.216Z,38.82
2022-09-17T22:49:30.308Z,38.81
2022-09-17T22:51:57.682Z,38.68
2022-09-17T22:54:27.539Z,38.81
2022-09-17T22:57:00.309Z,38.98
2022-09-17T22:59:33.035Z,38.87
2022-09-17T23:02:00.324Z,38.59
2022-09-17T23:04:30.582Z,38.82
2022-09-17T23:07:00.802Z,38.52
2022-09-17T23:09:30.765Z,38.96
2022-09-17T23:12:00.429Z,38.98
2022-09-17T23:14:30.313Z,38.95
2022-09-17T23:16:57.801Z,38.92
2022-09-17T23:19:30.646Z,38.91
2022-09-17T23:21:58.650Z,38.75
2022-09-17T23:24:28.329Z,38.46
2022-09-17T23:26:56.914Z,38.59
2022-09-17T23:29:24.148Z,38.36
2022-09-17T23:31:51.767Z,38.57
2022-09-17T23:34:19.268Z,38.67
2022-09-17T23:36:49.008Z,38.72
2022-09-17T23:39:16.376Z,38.67
2022-09-17T23:41:48.099Z,38.31
2022-09-17T23:44:20.942Z,38.63
2022-09-17T23:46:48.798Z,38.71
2022-09-17T23:49:18.652Z,38.32
2022-09-17T23:51:46.256Z,38.37
2022-09-17T23:54:13.728Z,38.29
2022-09-17T23:56:45.623Z,37.96
2022-09-17T23:59:15.786Z,37.96
